createdAt,value
2023-03-03T00:06:44.726Z,979.71
2023-03-03T00:18:45.145Z,979.63
2023-03-03T00:30:45.612Z,979.50
2023-03-03T00:42:46.050Z,979.48
2023-03-03T00:54:46.512Z,979.42
2023-03-03T01:06:46.963Z,979.24
2023-03-03T01:18:47.438Z,979.25
2023-03-03T01:30:47.864Z,979.17
2023-03-03T01:42:48.335Z,979.14
2023-03-03T01:54:48.785Z,979.05
2023-03-03T02:06:49.251Z,979.08
2023-03-03T02:18:49.666Z,978.97
2023-03-03T02:30:50.142Z,978.95
2023-03-03T02:42:50.556Z,978.88
2023-03-03T02:54:51.061Z,978.87
2023-03-03T03:06:51.491Z,978.77
2023-03-03T03:18:51.938Z,978.72
2023-03-03T03:30:52.421Z,978.72
2023-03-03T03:42:52.850Z,978.73
2023-03-03T03:54:53.307Z,978.70
2023-03-03T04:06:53.741Z,978.57
2023-03-03T04:18:54.230Z,978.55
2023-03-03T04:30:54.700Z,978.63
2023-03-03T04:42:55.123Z,978.63
2023-03-03T04:54:55.550Z,978.70
2023-03-03T05:06:56.000Z,978.74
2023-03-03T05:18:56.447Z,978.72
2023-03-03T05:30:56.937Z,978.83
2023-03-03T05:42:57.453Z,978.84
2023-03-03T05:54:57.822Z,979.05
2023-03-03T06:06:58.272Z,979.31
2023-03-03T06:18:58.758Z,979.37
2023-03-03T06:30:59.176Z,979.47
2023-03-03T06:42:59.597Z,979.60
2023-03-03T06:55:00.062Z,979.66
2023-03-03T07:07:00.529Z,979.80
2023-03-03T07:19:00.938Z,979.74
2023-03-03T07:31:01.483Z,979.86
2023-03-03T07:43:01.941Z,979.84
2023-03-03T07:55:02.366Z,979.84
2023-03-03T08:07:02.761Z,979.83
2023-03-03T08:19:03.246Z,979.76
2023-03-03T08:31:18.124Z,979.74
2023-03-03T08:43:04.141Z,979.84
2023-03-03T08:55:04.602Z,979.76
2023-03-03T09:07:05.059Z,979.73
2023-03-03T09:19:05.507Z,979.78
2023-03-03T09:31:07.636Z,979.77
2023-03-03T09:43:06.381Z,979.71
2023-03-03T09:55:06.867Z,979.81
2023-03-03T10:07:07.341Z,979.83
2023-03-03T10:19:07.764Z,979.79
2023-03-03T10:31:12.173Z,979.78
2023-03-03T10:43:08.642Z,979.69
2023-03-03T10:55:09.135Z,979.60
2023-03-03T11:07:09.570Z,979.50
2023-03-03T11:19:10.029Z,979.55
2023-03-03T11:31:10.612Z,979.33
2023-03-03T11:43:10.955Z,979.34
2023-03-03T11:55:11.396Z,979.07
2023-03-03T12:07:19.067Z,978.98
2023-03-03T12:19:12.307Z,978.94
2023-03-03T12:31:12.800Z,978.79
2023-03-03T12:43:13.224Z,978.81
2023-03-03T12:55:13.680Z,978.92
2023-03-03T13:07:14.140Z,978.88
2023-03-03T13:19:14.590Z,978.76
2023-03-03T13:31:15.116Z,978.86
2023-03-03T13:43:15.489Z,978.76
2023-03-03T13:55:15.924Z,978.73
2023-03-03T14:07:16.443Z,978.56
2023-03-03T14:19:16.850Z,978.49
2023-03-03T14:31:17.367Z,978.43
2023-03-03T14:43:17.761Z,978.31
2023-03-03T14:55:18.248Z,978.35
2023-03-03T15:07:18.648Z,978.33
2023-03-03T15:19:19.139Z,978.36
2023-03-03T15:31:19.772Z,978.33
2023-03-03T15:43:20.093Z,978.43
2023-03-03T15:55:20.522Z,978.46
2023-03-03T16:07:20.954Z,978.51
2023-03-03T16:19:21.407Z,978.68
2023-03-03T16:31:22.444Z,978.85
2023-03-03T16:43:22.327Z,979.10
2023-03-03T16:55:22.790Z,979.25
2023-03-03T17:07:23.240Z,979.32
2023-03-03T17:19:23.672Z,979.40
2023-03-03T17:31:24.144Z,979.54
2023-03-03T17:43:24.575Z,979.46
2023-03-03T17:55:25.015Z,979.61
2023-03-03T18:07:25.525Z,979.81
2023-03-03T18:19:25.929Z,979.86
2023-03-03T18:31:26.463Z,979.94
2023-03-03T18:43:26.859Z,980.11
2023-03-03T18:55:27.304Z,980.21
2023-03-03T19:07:27.737Z,980.25
2023-03-03T19:19:28.142Z,980.29
2023-03-03T19:31:28.639Z,980.31
2023-03-03T19:43:29.116Z,980.42
2023-03-03T19:55:29.530Z,980.37
2023-03-03T20:07:30.042Z,980.40
2023-03-03T20:31:30.971Z,980.63
2023-03-03T20:43:31.376Z,980.64
2023-03-03T20:55:31.833Z,980.71
2023-03-03T21:07:32.254Z,980.89
2023-03-03T21:19:32.729Z,980.97
2023-03-03T21:31:33.216Z,980.99
2023-03-03T21:43:33.621Z,981.02
2023-03-03T21:55:34.092Z,981.10
2023-03-03T22:07:34.517Z,981.08
2023-03-03T22:19:34.996Z,981.11
2023-03-03T22:31:35.436Z,981.10
2023-03-03T22:43:35.904Z,981.26
2023-03-03T22:55:36.359Z,981.09
2023-03-03T23:07:36.810Z,981.04
2023-03-03T23:19:37.228Z,980.97
2023-03-03T23:31:37.762Z,981.05
2023-03-03T23:43:38.140Z,981.08
2023-03-03T23:55:38.593Z,981.07
